sensor_id;sensor_type;location;lat;lon;timestamp;pressure;altitude;pressure_sealevel;temperature;humidity
72921;BME280;61064;51.654;5.476;2023-12-04T00:01:47;101360.06;;;1.10;99.83
72921;BME280;61064;51.654;5.476;2023-12-04T00:04:13;101357.53;;;1.11;99.58
72921;BME280;61064;51.654;5.476;2023-12-04T00:06:38;101362.84;;;1.13;99.52
72921;BME280;61064;51.654;5.476;2023-12-04T00:09:04;101366.22;;;1.10;99.56
72921;BME280;61064;51.654;5.476;2023-12-04T00:11:32;101353.03;;;1.09;99.44
72921;BME280;61064;51.654;5.476;2023-12-04T00:13:58;101338.88;;;1.05;99.67
72921;BME280;61064;51.654;5.476;2023-12-04T00:16:23;101352.22;;;1.10;99.76
72921;BME280;61064;51.654;5.476;2023-12-04T00:18:49;101330.03;;;1.03;99.62
72921;BME280;61064;51.654;5.476;2023-12-04T00:21:14;101339.03;;;1.08;99.81
72921;BME280;61064;51.654;5.476;2023-12-04T00:23:39;101331.84;;;1.04;99.76
72921;BME280;61064;51.654;5.476;2023-12-04T00:26:05;101339.19;;;1.11;99.77
72921;BME280;61064;51.654;5.476;2023-12-04T00:28:31;101342.69;;;1.12;99.93
72921;BME280;61064;51.654;5.476;2023-12-04T00:30:56;101326.69;;;1.06;100.00
72921;BME280;61064;51.654;5.476;2023-12-04T00:33:22;101345.91;;;1.06;99.75
72921;BME280;61064;51.654;5.476;2023-12-04T00:35:47;101343.59;;;1.12;100.00
72921;BME280;61064;51.654;5.476;2023-12-04T00:38:12;101338.34;;;1.12;99.84
72921;BME280;61064;51.654;5.476;2023-12-04T00:40:38;101326.91;;;1.10;99.77
72921;BME280;61064;51.654;5.476;2023-12-04T00:43:03;101326.91;;;1.10;99.74
72921;BME280;61064;51.654;5.476;2023-12-04T00:45:28;101333.19;;;1.14;99.85
72921;BME280;61064;51.654;5.476;2023-12-04T00:47:53;101323.63;;;1.14;99.90
72921;BME280;61064;51.654;5.476;2023-12-04T00:50:19;101318.28;;;1.13;100.00
72921;BME280;61064;51.654;5.476;2023-12-04T00:52:44;101326.16;;;1.13;99.91
72921;BME280;61064;51.654;5.476;2023-12-04T00:55:09;101318.28;;;1.13;100.00
72921;BME280;61064;51.654;5.476;2023-12-04T00:57:35;101314.03;;;1.15;99.98
72921;BME280;61064;51.654;5.476;2023-12-04T01:00:00;101307.59;;;1.08;99.89
72921;BME280;61064;51.654;5.476;2023-12-04T01:02:26;101306.19;;;1.15;99.72
72921;BME280;61064;51.654;5.476;2023-12-04T01:04:51;101282.16;;;1.06;99.94
72921;BME280;61064;51.654;5.476;2023-12-04T01:07:16;101305.19;;;1.13;99.94
72921;BME280;61064;51.654;5.476;2023-12-04T01:09:42;101302.56;;;1.13;100.00
72921;BME280;61064;51.654;5.476;2023-12-04T01:12:07;101300.13;;;1.16;99.70
72921;BME280;61064;51.654;5.476;2023-12-04T01:14:32;101286.94;;;1.14;99.95
72921;BME280;61064;51.654;5.476;2023-12-04T01:16:58;101284.09;;;1.10;99.88
72921;BME280;61064;51.654;5.476;2023-12-04T01:19:23;101287.84;;;1.15;99.68
72921;BME280;61064;51.654;5.476;2023-12-04T01:21:48;101280.72;;;1.12;99.97
72921;BME280;61064;51.654;5.476;2023-12-04T01:24:15;101281.78;;;1.16;99.70
72921;BME280;61064;51.654;5.476;2023-12-04T01:26:40;101284.41;;;1.16;100.00
72921;BME280;61064;51.654;5.476;2023-12-04T01:29:06;101288.84;;;1.17;99.70
72921;BME280;61064;51.654;5.476;2023-12-04T01:31:31;101279.00;;;1.13;99.61
72921;BME280;61064;51.654;5.476;2023-12-04T01:33:57;101270.31;;;1.14;99.81
72921;BME280;61064;51.654;5.476;2023-12-04T01:36:22;101283.59;;;1.17;99.92
72921;BME280;61064;51.654;5.476;2023-12-04T01:38:47;101272.94;;;1.14;99.84
72921;BME280;61064;51.654;5.476;2023-12-04T01:41:13;101273.09;;;1.17;99.84
72921;BME280;61064;51.654;5.476;2023-12-04T01:43:38;101270.50;;;1.17;100.00
72921;BME280;61064;51.654;5.476;2023-12-04T01:46:04;101276.59;;;1.17;99.88
72921;BME280;61064;51.654;5.476;2023-12-04T01:48:30;101264.34;;;1.16;100.00
72921;BME280;61064;51.654;5.476;2023-12-04T01:50:57;101267.88;;;1.17;99.81
72921;BME280;61064;51.654;5.476;2023-12-04T01:53:23;101267.19;;;1.21;99.93
72921;BME280;61064;51.654;5.476;2023-12-04T01:55:49;101266.19;;;1.19;99.93
72921;BME280;61064;51.654;5.476;2023-12-04T01:58:15;101256.53;;;1.18;99.88
72921;BME280;61064;51.654;5.476;2023-12-04T02:00:41;101250.34;;;1.16;99.88
72921;BME280;61064;51.654;5.476;2023-12-04T02:03:07;101255.00;;;1.21;99.87
72921;BME280;61064;51.654;5.476;2023-12-04T02:05:34;101255.63;;;1.17;99.72
72921;BME280;61064;51.654;5.476;2023-12-04T02:08:00;101243.59;;;1.21;100.00
72921;BME280;61064;51.654;5.476;2023-12-04T02:10:26;101242.78;;;1.22;100.00
72921;BME280;61064;51.654;5.476;2023-12-04T02:12:51;101240.22;;;1.23;99.74
72921;BME280;61064;51.654;5.476;2023-12-04T02:15:16;101242.94;;;1.25;99.90
72921;BME280;61064;51.654;5.476;2023-12-04T02:17:45;101214.69;;;1.19;99.79
72921;BME280;61064;51.654;5.476;2023-12-04T02:20:15;101227.28;;;1.27;99.75
72921;BME280;61064;51.654;5.476;2023-12-04T02:22:41;101231.72;;;1.28;99.49
72921;BME280;61064;51.654;5.476;2023-12-04T02:25:08;101221.16;;;1.26;99.70
72921;BME280;61064;51.654;5.476;2023-12-04T02:27:38;101214.91;;;1.24;99.70
72921;BME280;61064;51.654;5.476;2023-12-04T02:30:08;101203.72;;;1.27;99.63
72921;BME280;61064;51.654;5.476;2023-12-04T02:32:38;101209.03;;;1.28;99.65
72921;BME280;61064;51.654;5.476;2023-12-04T02:35:08;101202.88;;;1.28;99.48
72921;BME280;61064;51.654;5.476;2023-12-04T02:37:38;101209.06;;;1.30;99.81
72921;BME280;61064;51.654;5.476;2023-12-04T02:40:05;101198.69;;;1.31;99.64
72921;BME280;61064;51.654;5.476;2023-12-04T02:42:31;101194.25;;;1.30;99.85
72921;BME280;61064;51.654;5.476;2023-12-04T02:44:57;101189.00;;;1.30;99.71
72921;BME280;61064;51.654;5.476;2023-12-04T02:47:22;101189.19;;;1.33;99.69
72921;BME280;61064;51.654;5.476;2023-12-04T02:49:48;101176.59;;;1.26;99.65
72921;BME280;61064;51.654;5.476;2023-12-04T02:52:13;101196.06;;;1.31;99.47
72921;BME280;61064;51.654;5.476;2023-12-04T02:54:41;101190.94;;;1.34;99.36
72921;BME280;61064;51.654;5.476;2023-12-04T02:57:07;101162.69;;;1.27;99.41
72921;BME280;61064;51.654;5.476;2023-12-04T02:59:32;101173.22;;;1.29;99.45
72921;BME280;61064;51.654;5.476;2023-12-04T03:01:57;101158.25;;;1.26;99.37
72921;BME280;61064;51.654;5.476;2023-12-04T03:04:23;101166.41;;;1.32;99.24
72921;BME280;61064;51.654;5.476;2023-12-04T03:06:48;101164.75;;;1.34;99.39
72921;BME280;61064;51.654;5.476;2023-12-04T03:09:13;101155.75;;;1.29;99.19
72921;BME280;61064;51.654;5.476;2023-12-04T03:11:39;101157.66;;;1.32;99.38
72921;BME280;61064;51.654;5.476;2023-12-04T03:14:05;101157.72;;;1.33;99.17
72921;BME280;61064;51.654;5.476;2023-12-04T03:16:31;101142.66;;;1.29;99.21
72921;BME280;61064;51.654;5.476;2023-12-04T03:18:56;101145.56;;;1.35;99.20
72921;BME280;61064;51.654;5.476;2023-12-04T03:21:22;101146.34;;;1.33;99.13
72921;BME280;61064;51.654;5.476;2023-12-04T03:23:47;101133.16;;;1.31;99.29
72921;BME280;61064;51.654;5.476;2023-12-04T03:26:12;101129.56;;;1.29;99.29
72921;BME280;61064;51.654;5.476;2023-12-04T03:28:38;101126.88;;;1.28;99.20
72921;BME280;61064;51.654;5.476;2023-12-04T03:31:04;101131.28;;;1.29;98.85
72921;BME280;61064;51.654;5.476;2023-12-04T03:33:36;101112.59;;;1.21;98.94
72921;BME280;61064;51.654;5.476;2023-12-04T03:36:02;101120.88;;;1.30;98.96
72921;BME280;61064;51.654;5.476;2023-12-04T03:38:27;101113.00;;;1.30;99.02
72921;BME280;61064;51.654;5.476;2023-12-04T03:40:52;101107.56;;;1.25;98.86
72921;BME280;61064;51.654;5.476;2023-12-04T03:43:18;101112.06;;;1.28;99.13
72921;BME280;61064;51.654;5.476;2023-12-04T03:45:43;101097.91;;;1.24;98.79
72921;BME280;61064;51.654;5.476;2023-12-04T03:48:09;101106.81;;;1.28;98.89
72921;BME280;61064;51.654;5.476;2023-12-04T03:50:34;101102.41;;;1.27;99.11
72921;BME280;61064;51.654;5.476;2023-12-04T03:52:59;101109.34;;;1.27;98.99
72921;BME280;61064;51.654;5.476;2023-12-04T03:55:28;101081.75;;;1.15;98.96
72921;BME280;61064;51.654;5.476;2023-12-04T03:57:54;101096.09;;;1.23;98.94
72921;BME280;61064;51.654;5.476;2023-12-04T04:00:23;101071.41;;;1.18;99.10
72921;BME280;61064;51.654;5.476;2023-12-04T04:02:49;101079.47;;;1.23;99.01
72921;BME280;61064;51.654;5.476;2023-12-04T04:05:15;101078.22;;;1.15;98.93
72921;BME280;61064;51.654;5.476;2023-12-04T04:07:40;101073.06;;;1.16;99.01
72921;BME280;61064;51.654;5.476;2023-12-04T04:10:06;101077.25;;;1.13;99.07
72921;BME280;61064;51.654;5.476;2023-12-04T04:12:32;101070.19;;;1.12;98.77
72921;BME280;61064;51.654;5.476;2023-12-04T04:14:57;101086.00;;;1.13;99.03
72921;BME280;61064;51.654;5.476;2023-12-04T04:17:23;101073.59;;;1.09;98.56
72921;BME280;61064;51.654;5.476;2023-12-04T04:19:54;101069.25;;;1.10;98.66
72921;BME280;61064;51.654;5.476;2023-12-04T04:22:20;101055.94;;;1.05;98.74
72921;BME280;61064;51.654;5.476;2023-12-04T04:24:45;101062.09;;;1.06;98.85
72921;BME280;61064;51.654;5.476;2023-12-04T04:27:10;101069.09;;;1.07;99.04
72921;BME280;61064;51.654;5.476;2023-12-04T04:29:36;101047.09;;;1.03;98.46
72921;BME280;61064;51.654;5.476;2023-12-04T04:32:01;101057.94;;;1.11;98.93
72921;BME280;61064;51.654;5.476;2023-12-04T04:34:26;101036.50;;;1.00;98.74
72921;BME280;61064;51.654;5.476;2023-12-04T04:36:52;101049.59;;;1.00;98.91
72921;BME280;61064;51.654;5.476;2023-12-04T04:39:17;101037.34;;;1.01;98.60
72921;BME280;61064;51.654;5.476;2023-12-04T04:41:44;101043.59;;;1.03;98.67
72921;BME280;61064;51.654;5.476;2023-12-04T04:44:09;101055.94;;;1.05;98.59
72921;BME280;61064;51.654;5.476;2023-12-04T04:46:34;101047.09;;;1.03;98.92
72921;BME280;61064;51.654;5.476;2023-12-04T04:48:59;101042.84;;;1.05;98.81
72921;BME280;61064;51.654;5.476;2023-12-04T04:51:25;101032.13;;;1.01;98.92
72921;BME280;61064;51.654;5.476;2023-12-04T04:53:50;101033.09;;;1.03;98.70
72921;BME280;61064;51.654;5.476;2023-12-04T04:56:17;101047.22;;;1.06;99.30
72921;BME280;61064;51.654;5.476;2023-12-04T04:58:42;101039.97;;;1.01;98.85
72921;BME280;61064;51.654;5.476;2023-12-04T05:01:08;101048.97;;;1.06;98.51
72921;BME280;61064;51.654;5.476;2023-12-04T05:03:33;101025.84;;;0.97;98.83
72921;BME280;61064;51.654;5.476;2023-12-04T05:05:59;101041.84;;;1.03;98.55
72921;BME280;61064;51.654;5.476;2023-12-04T05:08:24;101036.63;;;1.03;98.52
72921;BME280;61064;51.654;5.476;2023-12-04T05:10:49;101029.44;;;0.99;98.61
72921;BME280;61064;51.654;5.476;2023-12-04T05:13:15;101036.84;;;1.08;98.46
72921;BME280;61064;51.654;5.476;2023-12-04T05:15:40;101042.00;;;1.06;98.45
72921;BME280;61064;51.654;5.476;2023-12-04T05:18:05;101027.19;;;1.07;98.56
72921;BME280;61064;51.654;5.476;2023-12-04T05:20:31;101030.69;;;1.07;98.43
72921;BME280;61064;51.654;5.476;2023-12-04T05:22:57;101007.69;;;1.00;98.33
72921;BME280;61064;51.654;5.476;2023-12-04T05:25:22;101028.97;;;1.08;98.68
72921;BME280;61064;51.654;5.476;2023-12-04T05:27:47;101005.19;;;1.03;98.74
72921;BME280;61064;51.654;5.476;2023-12-04T05:30:13;101011.47;;;1.07;98.18
72921;BME280;61064;51.654;5.476;2023-12-04T05:32:41;101000.78;;;1.02;98.69
72921;BME280;61064;51.654;5.476;2023-12-04T05:35:07;100998.34;;;1.07;98.57
72921;BME280;61064;51.654;5.476;2023-12-04T05:37:32;100993.81;;;1.03;98.37
72921;BME280;61064;51.654;5.476;2023-12-04T05:39:57;100993.00;;;1.04;98.39
72921;BME280;61064;51.654;5.476;2023-12-04T05:42:23;100999.34;;;1.09;98.22
72921;BME280;61064;51.654;5.476;2023-12-04T05:44:48;100998.44;;;1.08;98.21
72921;BME280;61064;51.654;5.476;2023-12-04T05:47:13;100984.31;;;1.05;98.49
72921;BME280;61064;51.654;5.476;2023-12-04T05:49:39;100987.06;;;1.08;98.11
72921;BME280;61064;51.654;5.476;2023-12-04T05:52:05;100988.03;;;1.10;98.32
72921;BME280;61064;51.654;5.476;2023-12-04T05:54:30;100988.03;;;1.10;98.17
72921;BME280;61064;51.654;5.476;2023-12-04T05:56:56;100998.53;;;1.10;97.98
72921;BME280;61064;51.654;5.476;2023-12-04T05:59:21;100977.97;;;1.00;98.24
72921;BME280;61064;51.654;5.476;2023-12-04T06:01:46;100996.72;;;1.09;98.31
72921;BME280;61064;51.654;5.476;2023-12-04T06:04:11;100997.63;;;1.09;97.88
72921;BME280;61064;51.654;5.476;2023-12-04T06:06:37;100992.38;;;1.09;98.35
72921;BME280;61064;51.654;5.476;2023-12-04T06:09:05;100997.63;;;1.09;98.10
72921;BME280;61064;51.654;5.476;2023-12-04T06:11:30;100981.81;;;1.08;98.08
72921;BME280;61064;51.654;5.476;2023-12-04T06:13:56;100964.09;;;1.02;98.12
72921;BME280;61064;51.654;5.476;2023-12-04T06:16:21;100992.38;;;1.09;97.93
72921;BME280;61064;51.654;5.476;2023-12-04T06:18:46;100980.03;;;1.07;97.83
72921;BME280;61064;51.654;5.476;2023-12-04T06:21:12;100981.81;;;1.08;97.78
72921;BME280;61064;51.654;5.476;2023-12-04T06:23:37;100958.94;;;1.04;97.77
72921;BME280;61064;51.654;5.476;2023-12-04T06:26:03;100957.50;;;1.10;97.97
72921;BME280;61064;51.654;5.476;2023-12-04T06:28:28;100944.25;;;1.07;97.54
72921;BME280;61064;51.654;5.476;2023-12-04T06:30:57;100938.97;;;1.06;97.62
72921;BME280;61064;51.654;5.476;2023-12-04T06:33:23;100936.47;;;1.09;97.72
72921;BME280;61064;51.654;5.476;2023-12-04T06:35:48;100918.81;;;1.05;97.62
72921;BME280;61064;51.654;5.476;2023-12-04T06:38:15;100918.94;;;1.08;97.86
72921;BME280;61064;51.654;5.476;2023-12-04T06:40:50;100911.09;;;1.08;97.65
72921;BME280;61064;51.654;5.476;2023-12-04T06:43:15;100915.38;;;1.06;97.74
72921;BME280;61064;51.654;5.476;2023-12-04T06:45:44;100911.25;;;1.11;97.43
72921;BME280;61064;51.654;5.476;2023-12-04T06:48:12;100908.63;;;1.11;97.28
72921;BME280;61064;51.654;5.476;2023-12-04T06:50:38;100884.78;;;1.05;97.41
72921;BME280;61064;51.654;5.476;2023-12-04T06:53:04;100879.66;;;1.08;97.69
72921;BME280;61064;51.654;5.476;2023-12-04T06:55:29;100897.28;;;1.12;97.58
72921;BME280;61064;51.654;5.476;2023-12-04T06:57:54;100896.19;;;1.07;97.56
72921;BME280;61064;51.654;5.476;2023-12-04T07:00:20;100872.63;;;1.07;97.17
72921;BME280;61064;51.654;5.476;2023-12-04T07:02:46;100897.38;;;1.13;97.34
72921;BME280;61064;51.654;5.476;2023-12-04T07:05:11;100889.44;;;1.12;97.05
72921;BME280;61064;51.654;5.476;2023-12-04T07:07:36;100895.56;;;1.12;97.00
72921;BME280;61064;51.654;5.476;2023-12-04T07:10:02;100870.91;;;1.07;96.92
72921;BME280;61064;51.654;5.476;2023-12-04T07:12:27;100898.34;;;1.15;97.15
72921;BME280;61064;51.654;5.476;2023-12-04T07:14:52;100888.47;;;1.10;97.14
72921;BME280;61064;51.654;5.476;2023-12-04T07:17:18;100897.53;;;1.16;97.07
72921;BME280;61064;51.654;5.476;2023-12-04T07:19:43;100894.91;;;1.16;96.84
72921;BME280;61064;51.654;5.476;2023-12-04T07:22:08;100896.81;;;1.20;96.93
72921;BME280;61064;51.654;5.476;2023-12-04T07:24:34;100886.97;;;1.15;96.58
72921;BME280;61064;51.654;5.476;2023-12-04T07:26:59;100900.34;;;1.21;96.66
72921;BME280;61064;51.654;5.476;2023-12-04T07:29:25;100887.09;;;1.18;96.60
72921;BME280;61064;51.654;5.476;2023-12-04T07:31:51;100899.38;;;1.19;96.78
72921;BME280;61064;51.654;5.476;2023-12-04T07:34:16;100899.44;;;1.20;96.77
72921;BME280;61064;51.654;5.476;2023-12-04T07:36:42;100882.53;;;1.14;96.38
72921;BME280;61064;51.654;5.476;2023-12-04T07:39:09;100898.53;;;1.20;96.48
72921;BME280;61064;51.654;5.476;2023-12-04T07:41:34;100891.50;;;1.19;96.13
72921;BME280;61064;51.654;5.476;2023-12-04T07:43:59;100891.59;;;1.20;95.95
72921;BME280;61064;51.654;5.476;2023-12-04T07:46:25;100894.94;;;1.18;96.30
72921;BME280;61064;51.654;5.476;2023-12-04T07:48:50;100895.84;;;1.18;96.07
72921;BME280;61064;51.654;5.476;2023-12-04T07:51:16;100891.59;;;1.20;95.98
72921;BME280;61064;51.654;5.476;2023-12-04T07:53:42;100901.25;;;1.21;95.35
72921;BME280;61064;51.654;5.476;2023-12-04T07:56:14;100886.41;;;1.22;95.79
72921;BME280;61064;51.654;5.476;2023-12-04T07:58:52;100878.31;;;1.17;96.04
72921;BME280;61064;51.654;5.476;2023-12-04T08:01:17;100881.91;;;1.19;95.92
72921;BME280;61064;51.654;5.476;2023-12-04T08:03:42;100880.09;;;1.17;95.55
72921;BME280;61064;51.654;5.476;2023-12-04T08:06:08;100874.88;;;1.18;95.66
72921;BME280;61064;51.654;5.476;2023-12-04T08:08:37;100871.53;;;1.21;95.65
72921;BME280;61064;51.654;5.476;2023-12-04T08:11:03;100866.09;;;1.16;95.57
72921;BME280;61064;51.654;5.476;2023-12-04T08:13:28;100867.38;;;1.26;95.65
72921;BME280;61064;51.654;5.476;2023-12-04T08:15:53;100857.72;;;1.25;95.37
72921;BME280;61064;51.654;5.476;2023-12-04T08:18:19;100855.88;;;1.22;95.21
72921;BME280;61064;51.654;5.476;2023-12-04T08:20:44;100859.59;;;1.28;94.85
72921;BME280;61064;51.654;5.476;2023-12-04T08:23:10;100856.19;;;1.30;95.19
72921;BME280;61064;51.654;5.476;2023-12-04T08:25:35;100864.13;;;1.32;95.32
72921;BME280;61064;51.654;5.476;2023-12-04T08:28:03;100848.19;;;1.27;95.06
72921;BME280;61064;51.654;5.476;2023-12-04T08:30:28;100854.63;;;1.34;94.82
72921;BME280;61064;51.654;5.476;2023-12-04T08:32:54;100845.69;;;1.30;94.62
72921;BME280;61064;51.654;5.476;2023-12-04T08:35:19;100845.91;;;1.35;94.91
72921;BME280;61064;51.654;5.476;2023-12-04T08:37:45;100829.97;;;1.30;94.19
72921;BME280;61064;51.654;5.476;2023-12-04T08:40:11;100827.44;;;1.32;94.59
72921;BME280;61064;51.654;5.476;2023-12-04T08:42:37;100824.81;;;1.32;94.63
72921;BME280;61064;51.654;5.476;2023-12-04T08:45:04;100844.31;;;1.38;93.99
72921;BME280;61064;51.654;5.476;2023-12-04T08:47:31;100839.97;;;1.39;94.24
72921;BME280;61064;51.654;5.476;2023-12-04T08:49:56;100839.13;;;1.40;94.38
72921;BME280;61064;51.654;5.476;2023-12-04T08:52:22;100820.72;;;1.38;94.22
72921;BME280;61064;51.654;5.476;2023-12-04T08:54:47;100829.59;;;1.42;94.59
72921;BME280;61064;51.654;5.476;2023-12-04T08:57:13;100807.56;;;1.37;94.49
72921;BME280;61064;51.654;5.476;2023-12-04T08:59:38;100811.25;;;1.42;94.08
72921;BME280;61064;51.654;5.476;2023-12-04T09:02:04;100819.28;;;1.45;94.11
72921;BME280;61064;51.654;5.476;2023-12-04T09:04:33;100810.50;;;1.44;94.02
72921;BME280;61064;51.654;5.476;2023-12-04T09:06:58;100798.94;;;1.39;94.20
72921;BME280;61064;51.654;5.476;2023-12-04T09:09:24;100794.63;;;1.41;94.24
72921;BME280;61064;51.654;5.476;2023-12-04T09:11:49;100787.81;;;1.45;93.95
72921;BME280;61064;51.654;5.476;2023-12-04T09:14:15;100789.66;;;1.47;93.75
72921;BME280;61064;51.654;5.476;2023-12-04T09:16:41;100802.91;;;1.50;94.06
72921;BME280;61064;51.654;5.476;2023-12-04T09:19:06;100791.31;;;1.45;93.67
72921;BME280;61064;51.654;5.476;2023-12-04T09:21:31;100806.47;;;1.52;93.73
72921;BME280;61064;51.654;5.476;2023-12-04T09:23:57;100803.84;;;1.52;93.57
72921;BME280;61064;51.654;5.476;2023-12-04T09:26:22;100805.63;;;1.53;93.58
72921;BME280;61064;51.654;5.476;2023-12-04T09:28:48;100802.19;;;1.54;93.33
72921;BME280;61064;51.654;5.476;2023-12-04T09:31:13;100798.69;;;1.54;93.15
72921;BME280;61064;51.654;5.476;2023-12-04T09:33:39;100803.13;;;1.56;93.61
72921;BME280;61064;51.654;5.476;2023-12-04T09:36:04;100788.94;;;1.51;93.22
72921;BME280;61064;51.654;5.476;2023-12-04T09:38:30;100790.91;;;1.57;93.38
72921;BME280;61064;51.654;5.476;2023-12-04T09:40:59;100786.47;;;1.54;93.00
72921;BME280;61064;51.654;5.476;2023-12-04T09:43:26;100775.78;;;1.50;92.81
72921;BME280;61064;51.654;5.476;2023-12-04T09:45:51;100794.59;;;1.60;93.28
72921;BME280;61064;51.654;5.476;2023-12-04T09:48:17;100792.59;;;1.55;93.25
72921;BME280;61064;51.654;5.476;2023-12-04T09:50:43;100787.47;;;1.58;93.25
72921;BME280;61064;51.654;5.476;2023-12-04T09:53:14;100788.53;;;1.61;92.82
72921;BME280;61064;51.654;5.476;2023-12-04T09:55:40;100793.03;;;1.65;92.85
72921;BME280;61064;51.654;5.476;2023-12-04T09:58:06;100767.31;;;1.57;93.01
72921;BME280;61064;51.654;5.476;2023-12-04T10:00:32;100785.28;;;1.68;92.78
72921;BME280;61064;51.654;5.476;2023-12-04T10:02:58;100767.41;;;1.58;92.75
72921;BME280;61064;51.654;5.476;2023-12-04T10:05:25;100788.94;;;1.72;92.93
72921;BME280;61064;51.654;5.476;2023-12-04T10:07:50;100780.19;;;1.72;92.70
72921;BME280;61064;51.654;5.476;2023-12-04T10:10:15;100769.69;;;1.72;92.93
72921;BME280;61064;51.654;5.476;2023-12-04T10:12:43;100770.69;;;1.75;92.65
72921;BME280;61064;51.654;5.476;2023-12-04T10:15:09;100770.78;;;1.77;92.80
72921;BME280;61064;51.654;5.476;2023-12-04T10:17:37;100760.28;;;1.77;92.86
72921;BME280;61064;51.654;5.476;2023-12-04T10:22:54;100763.91;;;1.80;92.68
72921;BME280;61064;51.654;5.476;2023-12-04T10:25:20;100763.97;;;1.82;92.90
72921;BME280;61064;51.654;5.476;2023-12-04T10:27:46;100748.81;;;1.75;92.60
72921;BME280;61064;51.654;5.476;2023-12-04T10:30:26;100741.94;;;1.77;92.74
72921;BME280;61064;51.654;5.476;2023-12-04T10:32:59;100735.06;;;1.80;92.76
72921;BME280;61064;51.654;5.476;2023-12-04T10:35:29;100720.13;;;1.78;92.42
72921;BME280;61064;51.654;5.476;2023-12-04T10:37:56;100728.22;;;1.84;92.66
72921;BME280;61064;51.654;5.476;2023-12-04T10:40:35;100715.28;;;1.88;92.66
72921;BME280;61064;51.654;5.476;2023-12-04T10:43:23;100711.94;;;1.92;92.43
72921;BME280;61064;51.654;5.476;2023-12-04T10:45:50;100717.25;;;1.94;92.32
72921;BME280;61064;51.654;5.476;2023-12-04T10:48:18;100716.34;;;1.93;92.67
72921;BME280;61064;51.654;5.476;2023-12-04T10:50:48;100711.19;;;1.95;92.23
72921;BME280;61064;51.654;5.476;2023-12-04T10:53:15;100700.69;;;1.95;92.31
72921;BME280;61064;51.654;5.476;2023-12-04T10:55:42;100691.94;;;1.96;92.49
72921;BME280;61064;51.654;5.476;2023-12-04T10:58:09;100684.94;;;1.95;92.54
72921;BME280;61064;51.654;5.476;2023-12-04T11:00:37;100678.13;;;2.00;92.14
72921;BME280;61064;51.654;5.476;2023-12-04T11:03:13;100686.91;;;2.00;92.20
72921;BME280;61064;51.654;5.476;2023-12-04T11:05:40;100673.00;;;2.03;92.41
72921;BME280;61064;51.654;5.476;2023-12-04T11:08:13;100670.44;;;2.04;92.08
72921;BME280;61064;51.654;5.476;2023-12-04T11:10:45;100653.91;;;2.07;92.24
72921;BME280;61064;51.654;5.476;2023-12-04T11:13:17;100667.16;;;2.10;92.43
72921;BME280;61064;51.654;5.476;2023-12-04T11:15:47;100653.13;;;2.09;92.17
72921;BME280;61064;51.654;5.476;2023-12-04T11:18:15;100653.28;;;2.14;92.02
72921;BME280;61064;51.654;5.476;2023-12-04T11:20:48;100638.34;;;2.12;91.86
72921;BME280;61064;51.654;5.476;2023-12-04T11:23:16;100651.66;;;2.18;91.92
72921;BME280;61064;51.654;5.476;2023-12-04T11:25:43;100643.03;;;2.20;91.92
72921;BME280;61064;51.654;5.476;2023-12-04T11:28:09;100640.41;;;2.20;92.30
72921;BME280;61064;51.654;5.476;2023-12-04T11:30:36;100627.22;;;2.19;92.13
72921;BME280;61064;51.654;5.476;2023-12-04T11:33:02;100627.28;;;2.20;92.06
72921;BME280;61064;51.654;5.476;2023-12-04T11:35:28;100636.13;;;2.22;92.06
72921;BME280;61064;51.654;5.476;2023-12-04T11:37:53;100631.69;;;2.21;91.81
72921;BME280;61064;51.654;5.476;2023-12-04T11:40:22;100623.69;;;2.18;91.71
72921;BME280;61064;51.654;5.476;2023-12-04T11:42:48;100636.44;;;2.31;91.54
72921;BME280;61064;51.654;5.476;2023-12-04T11:45:20;100624.81;;;2.25;91.68
72921;BME280;61064;51.654;5.476;2023-12-04T11:47:54;100632.97;;;2.32;91.54
72921;BME280;61064;51.654;5.476;2023-12-04T11:50:21;100629.53;;;2.33;91.61
72921;BME280;61064;51.654;5.476;2023-12-04T11:52:47;100622.47;;;2.32;91.66
72921;BME280;61064;51.654;5.476;2023-12-04T11:55:16;100617.28;;;2.34;91.68
72921;BME280;61064;51.654;5.476;2023-12-04T11:57:41;100611.16;;;2.33;91.85
72921;BME280;61064;51.654;5.476;2023-12-04T12:00:18;100612.97;;;2.36;91.76
72921;BME280;61064;51.654;5.476;2023-12-04T12:02:49;100606.81;;;2.35;91.65
72921;BME280;61064;51.654;5.476;2023-12-04T12:05:26;100603.38;;;2.36;91.46
72921;BME280;61064;51.654;5.476;2023-12-04T12:07:52;100595.41;;;2.33;91.84
72921;BME280;61064;51.654;5.476;2023-12-04T12:10:17;100590.19;;;2.35;91.64
72921;BME280;61064;51.654;5.476;2023-12-04T12:12:43;100579.75;;;2.36;91.93
72921;BME280;61064;51.654;5.476;2023-12-04T12:15:09;100578.00;;;2.37;91.49
72921;BME280;61064;51.654;5.476;2023-12-04T12:17:35;100556.72;;;2.29;91.91
72921;BME280;61064;51.654;5.476;2023-12-04T12:20:00;100550.66;;;2.30;91.71
72921;BME280;61064;51.654;5.476;2023-12-04T12:22:25;100550.66;;;2.30;91.89
72921;BME280;61064;51.654;5.476;2023-12-04T12:24:51;100539.25;;;2.30;91.52
72921;BME280;61064;51.654;5.476;2023-12-04T12:27:16;100549.00;;;2.32;91.81
72921;BME280;61064;51.654;5.476;2023-12-04T12:29:42;100537.47;;;2.29;91.97
72921;BME280;61064;51.654;5.476;2023-12-04T12:32:08;100543.75;;;2.32;92.11
72921;BME280;61064;51.654;5.476;2023-12-04T12:34:33;100529.66;;;2.30;91.64
72921;BME280;61064;51.654;5.476;2023-12-04T12:37:02;100526.03;;;2.27;91.99
72921;BME280;61064;51.654;5.476;2023-12-04T12:39:29;100513.00;;;2.30;92.12
72921;BME280;61064;51.654;5.476;2023-12-04T12:41:55;100511.13;;;2.26;92.21
72921;BME280;61064;51.654;5.476;2023-12-04T12:44:20;100513.00;;;2.30;92.11
72921;BME280;61064;51.654;5.476;2023-12-04T12:46:49;100513.00;;;2.28;92.09
72921;BME280;61064;51.654;5.476;2023-12-04T12:49:19;100501.59;;;2.28;92.20
72921;BME280;61064;51.654;5.476;2023-12-04T12:51:47;100513.81;;;2.27;92.42
72921;BME280;61064;51.654;5.476;2023-12-04T12:54:13;100514.53;;;2.23;92.29
72921;BME280;61064;51.654;5.476;2023-12-04T12:56:38;100520.81;;;2.27;92.22
72921;BME280;61064;51.654;5.476;2023-12-04T12:59:06;100499.66;;;2.22;92.69